Time;durP1;ratioP1;P1;durP2;ratioP2;P2;SDS_P1;SDS_P2;PMS_P1;PMS_P2;Temp;Humidity;BMP_temperature;BMP_pressure;BME280_temperature;BME280_humidity;BME280_pressure;Samples;Min_cycle;Max_cycle;Signal;HPM_P1;HPM_P2
2022/09/13 00:01:12;;;;;;;575.65;523.25;;;14.30;99.90;;;14.32;100.00;99994.44;5106479;27;20219;-66
2022/09/13 00:03:39;;;;;;;564.25;512.75;;;14.30;99.90;;;14.55;100.00;99983.53;5075805;27;20203;-66
2022/09/13 00:06:17;;;;;;;570.50;518.78;;;14.70;99.90;;;14.41;100.00;99989.88;5090878;27;20204;-66
2022/09/13 00:08:46;;;;;;;570.78;519.72;;;14.40;99.90;;;14.13;100.00;100004.41;5091895;27;20216;-67
2022/09/13 00:11:22;;;;;;;559.78;508.73;;;14.20;99.90;;;14.32;100.00;100000.66;5103749;27;20216;-65
2022/09/13 00:13:50;;;;;;;563.65;511.80;;;14.30;99.90;;;14.45;100.00;99993.41;5076173;27;20227;-67
2022/09/13 00:16:21;;;;;;;565.78;513.42;;;14.30;99.90;;;14.52;100.00;99971.16;5101227;28;20208;-66
2022/09/13 00:18:50;;;;;;;562.90;511.27;;;14.30;99.90;;;14.45;100.00;99968.59;5068745;27;20215;-65
2022/09/13 00:21:20;;;;;;;555.05;504.05;;;14.30;99.90;;;14.22;100.00;99980.34;5082840;27;20195;-65
2022/09/13 00:23:51;;;;;;;569.50;517.47;;;14.30;99.90;;;14.27;100.00;99980.31;5081088;27;20210;-67
2022/09/13 00:26:26;;;;;;;567.72;516.10;;;14.30;99.90;;;14.22;100.00;99991.00;5054173;27;20207;-65
2022/09/13 00:28:58;;;;;;;556.20;504.98;;;14.20;99.90;;;14.23;100.00;99994.53;5090756;28;20209;-65
2022/09/13 00:31:27;;;;;;;560.10;508.17;;;14.20;99.90;;;13.92;100.00;99994.91;5085139;28;20220;-65
2022/09/13 00:33:58;;;;;;;571.00;518.55;;;14.10;99.90;;;14.09;100.00;100003.56;5084893;28;20704;-66
2022/09/13 00:36:26;;;;;;;553.55;502.63;;;14.10;99.90;;;14.11;100.00;100008.88;5113725;27;20197;-67
2022/09/13 00:38:54;;;;;;;551.00;499.88;;;14.10;99.90;;;14.19;100.00;99993.69;5091201;28;20684;-65
2022/09/13 00:41:22;;;;;;;559.97;508.55;;;14.10;99.90;;;14.36;100.00;99985.53;5109177;27;20215;-65
2022/09/13 00:43:54;;;;;;;550.13;499.33;;;14.10;99.90;;;14.13;100.00;99995.56;5069021;28;20209;-66
2022/09/13 00:46:43;;;;;;;550.67;499.75;;;14.20;99.90;;;14.13;100.00;100006.19;5105483;28;20533;-66
2022/09/13 00:49:37;;;;;;;529.88;479.63;;;14.10;99.90;;;14.06;100.00;100006.25;5089431;28;20216;-67
2022/09/13 00:52:11;;;;;;;528.08;478.65;;;14.00;99.90;;;13.89;100.00;100015.34;5060706;28;20223;-66
2022/09/13 00:54:52;;;;;;;542.15;490.85;;;14.00;99.90;;;14.01;100.00;100015.19;5068064;27;20212;-66
2022/09/13 00:57:21;;;;;;;535.20;484.42;;;14.00;99.90;;;13.96;100.00;100015.25;5081403;27;20192;-67
2022/09/13 01:00:12;;;;;;;535.80;484.92;;;14.00;99.90;;;13.92;100.00;100021.50;5076958;27;20207;-67
2022/09/13 01:02:55;;;;;;;528.22;477.65;;;13.90;99.90;;;13.92;100.00;100031.25;5104600;27;20219;-66
2022/09/13 01:05:29;;;;;;;543.55;490.65;;;13.90;99.90;;;13.81;100.00;100023.38;5065378;27;20203;-66
2022/09/13 01:07:59;;;;;;;536.17;485.45;;;13.90;99.90;;;13.75;100.00;100036.75;5080092;28;20575;-67
2022/09/13 01:10:30;;;;;;;543.78;492.13;;;13.80;99.90;;;13.74;100.00;100040.28;5073525;27;20207;-66
2022/09/13 01:13:11;;;;;;;537.22;485.83;;;13.80;99.90;;;13.71;100.00;100041.22;5069682;28;20229;-66
2022/09/13 01:15:43;;;;;;;529.50;478.60;;;13.70;99.90;;;13.68;100.00;100043.91;5092648;27;20769;-66
2022/09/13 01:18:11;;;;;;;537.78;486.73;;;13.70;99.90;;;13.50;100.00;100044.06;5094323;27;20708;-66
2022/09/13 01:21:16;;;;;;;538.42;486.98;;;13.60;99.90;;;13.62;100.00;100048.38;5104384;27;20218;-67
2022/09/13 01:24:33;;;;;;;502.80;453.30;;;13.60;99.90;;;13.71;100.00;100057.16;5122153;27;20210;-66
2022/09/13 01:27:28;;;;;;;515.55;465.23;;;13.60;99.90;;;13.70;100.00;100052.72;5109269;27;20222;-67
2022/09/13 01:30:18;;;;;;;511.83;461.48;;;13.70;99.90;;;13.54;100.00;100066.19;5120829;27;20206;-66
2022/09/13 01:33:25;;;;;;;513.58;463.13;;;13.60;99.90;;;13.58;100.00;100079.41;5107342;27;20232;-65
2022/09/13 01:36:11;;;;;;;516.97;465.77;;;13.60;99.90;;;13.66;100.00;100085.53;5105008;27;20223;-67
2022/09/13 01:38:50;;;;;;;523.53;471.85;;;13.50;99.90;;;13.68;100.00;100077.56;5101277;27;20208;-67
2022/09/13 01:41:54;;;;;;;517.90;466.88;;;13.60;99.90;;;13.68;100.00;100070.47;5084795;27;20200;-66
2022/09/13 01:44:33;;;;;;;511.00;460.60;;;13.60;99.90;;;13.66;100.00;100060.75;5068271;28;20212;-67
2022/09/13 01:47:35;;;;;;;521.05;470.02;;;13.60;99.90;;;13.67;100.00;100033.28;5066783;27;20207;-65
2022/09/13 01:50:21;;;;;;;513.00;460.73;;;13.50;99.90;;;13.66;100.00;100044.81;5084186;27;20219;-65
2022/09/13 01:53:07;;;;;;;499.63;449.35;;;13.60;99.90;;;13.29;100.00;100049.56;5092237;28;20228;-67
2022/09/13 01:55:45;;;;;;;506.25;455.90;;;13.50;99.90;;;13.24;100.00;100056.69;5101484;27;20238;-66
2022/09/13 01:58:16;;;;;;;511.58;460.40;;;13.40;99.90;;;13.19;100.00;100077.09;5089086;27;20211;-66
2022/09/13 02:01:15;;;;;;;502.70;451.90;;;13.90;99.90;;;13.24;100.00;100089.44;5104645;27;20201;-65
2022/09/13 02:04:23;;;;;;;494.83;444.25;;;13.20;99.90;;;13.24;100.00;100080.59;5101161;27;20731;-67
2022/09/13 02:07:16;;;;;;;488.33;438.55;;;13.20;99.90;;;13.25;100.00;100091.19;5109486;27;20204;-65
2022/09/13 02:09:51;;;;;;;501.23;450.98;;;13.20;99.90;;;13.31;100.00;100085.84;5072295;27;20679;-67
2022/09/13 02:12:23;;;;;;;497.15;446.10;;;13.30;99.90;;;13.25;100.00;100098.28;5079334;27;20233;-66
2022/09/13 02:15:26;;;;;;;498.52;448.23;;;13.20;99.90;;;13.16;100.00;100101.84;5096945;27;20222;-65
2022/09/13 02:18:08;;;;;;;483.08;433.23;;;13.20;99.90;;;13.18;100.00;100120.47;5122812;27;20196;-66
2022/09/13 02:20:43;;;;;;;477.95;428.65;;;13.10;99.90;;;13.18;100.00;100121.34;5093588;28;20200;-67
2022/09/13 02:23:18;;;;;;;492.42;442.08;;;13.10;99.90;;;13.24;100.00;100107.13;5089656;27;20242;-67
2022/09/13 02:25:50;;;;;;;492.33;441.88;;;13.10;99.90;;;13.16;100.00;100123.09;5091228;27;20214;-67
2022/09/13 02:28:27;;;;;;;489.35;438.83;;;13.10;99.90;;;13.07;100.00;100121.38;5118953;27;20212;-67
2022/09/13 02:30:58;;;;;;;482.88;433.10;;;13.10;99.90;;;13.07;100.00;100129.34;5077886;27;20211;-67
2022/09/13 02:33:42;;;;;;;482.75;433.10;;;13.10;99.90;;;12.99;100.00;100131.13;5091954;27;20228;-66
2022/09/13 02:36:21;;;;;;;468.52;420.15;;;13.10;99.90;;;13.07;100.00;100121.38;5066587;27;20211;-66
2022/09/13 02:38:56;;;;;;;486.90;436.92;;;13.00;99.90;;;13.09;100.00;100127.56;5111258;27;20218;-67
2022/09/13 02:41:52;;;;;;;481.88;432.20;;;13.00;99.90;;;13.20;100.00;100124.88;5089065;27;20728;-67
2022/09/13 02:44:37;;;;;;;477.02;427.40;;;13.10;99.90;;;13.27;100.00;100109.78;5074516;28;20219;-67
2022/09/13 02:47:53;;;;;;;484.92;435.20;;;13.10;99.90;;;13.33;100.00;100094.69;5067112;28;20220;-65
2022/09/13 02:50:56;;;;;;;476.75;426.90;;;13.20;99.90;;;13.34;100.00;100100.88;5048083;27;20210;-65
2022/09/13 02:53:42;;;;;;;470.98;421.08;;;13.30;99.90;;;13.27;100.00;100100.03;5085052;28;20688;-66
2022/09/13 02:56:17;;;;;;;480.85;430.98;;;13.30;99.90;;;13.23;100.00;100123.97;5069934;27;20231;-65
2022/09/13 02:59:16;;;;;;;481.05;432.10;;;13.20;99.90;;;13.11;100.00;100135.50;5088557;27;20203;-65
2022/09/13 03:02:11;;;;;;;475.10;425.92;;;13.10;99.90;;;12.99;100.00;100146.16;5120072;27;20223;-66
2022/09/13 03:04:39;;;;;;;474.00;424.80;;;13.00;99.90;;;12.97;100.00;100132.03;5094497;27;20204;-65
2022/09/13 03:07:13;;;;;;;487.58;437.00;;;13.00;99.90;;;13.14;100.00;100135.50;5090494;28;20200;-66
2022/09/13 03:10:10;;;;;;;480.42;430.77;;;13.00;99.90;;;13.11;100.00;100139.06;5066968;28;20195;-66
2022/09/13 03:13:09;;;;;;;469.48;419.88;;;13.10;99.90;;;13.08;100.00;100144.38;5067859;28;20225;-66
2022/09/13 03:15:52;;;;;;;471.20;421.73;;;13.10;99.90;;;13.11;100.00;100141.72;5103399;27;20231;-66
2022/09/13 03:18:28;;;;;;;466.92;417.73;;;13.10;99.90;;;13.21;100.00;100144.34;5092162;27;20663;-65
2022/09/13 03:21:08;;;;;;;482.50;431.77;;;13.10;99.90;;;13.23;100.00;100147.88;5097490;27;20208;-67
2022/09/13 03:23:57;;;;;;;477.42;427.27;;;13.10;99.90;;;13.24;100.00;100154.94;5106222;27;20207;-65
2022/09/13 03:26:45;;;;;;;471.73;422.08;;;13.20;99.90;;;13.22;100.00;100162.03;5088860;27;20199;-66
2022/09/13 03:29:32;;;;;;;484.33;432.90;;;13.20;99.90;;;13.18;100.00;100166.47;5090915;27;20218;-67
2022/09/13 03:32:24;;;;;;;467.73;417.95;;;13.20;99.90;;;13.25;100.00;100176.16;5086208;27;20234;-66
2022/09/13 03:35:36;;;;;;;474.52;424.35;;;13.20;99.90;;;13.16;100.00;100188.59;5073261;27;20240;-67
2022/09/13 03:38:31;;;;;;;470.75;421.05;;;13.20;99.90;;;13.07;100.00;100187.75;5024328;28;20200;-66
2022/09/13 03:41:08;;;;;;;478.42;429.33;;;13.20;99.90;;;13.07;100.00;100182.44;5102032;27;20204;-66
2022/09/13 03:43:51;;;;;;;473.25;422.80;;;13.10;99.90;;;13.01;100.00;100178.94;5065134;28;20201;-67
2022/09/13 03:46:26;;;;;;;475.50;425.60;;;13.10;99.90;;;12.99;100.00;100188.63;5068219;28;20200;-67
2022/09/13 03:48:57;;;;;;;478.15;428.33;;;13.00;99.90;;;12.91;100.00;100183.38;5088424;27;20211;-65
2022/09/13 03:51:26;;;;;;;476.63;426.80;;;13.00;99.90;;;12.87;100.00;100189.56;5086119;28;20216;-65
2022/09/13 03:54:00;;;;;;;477.63;427.55;;;12.90;99.90;;;12.99;100.00;100189.53;5070049;27;20211;-65
2022/09/13 03:56:28;;;;;;;475.48;426.02;;;12.90;99.90;;;13.00;100.00;100187.75;5086484;28;20204;-65
2022/09/13 03:58:56;;;;;;;474.65;424.88;;;13.00;99.90;;;13.02;100.00;100193.97;5110857;27;20208;-65
2022/09/13 04:01:24;;;;;;;478.92;428.85;;;13.00;99.90;;;12.99;100.00;100194.81;5110041;27;20231;-65
2022/09/13 04:03:53;;;;;;;475.17;425.67;;;13.00;99.90;;;13.14;100.00;100196.56;5078100;27;20202;-67
2022/09/13 04:06:24;;;;;;;479.85;429.75;;;13.10;99.90;;;13.16;100.00;100185.94;5114763;27;20204;-66
2022/09/13 04:08:51;;;;;;;483.30;432.90;;;13.10;99.90;;;13.13;100.00;100178.88;5083521;28;20201;-66
2022/09/13 04:11:22;;;;;;;476.10;425.80;;;13.10;99.90;;;13.00;100.00;100182.44;5097227;28;20215;-67
2022/09/13 04:13:51;;;;;;;471.13;422.60;;;13.00;99.90;;;12.99;100.00;100185.97;5091033;28;20203;-65
2022/09/13 04:16:19;;;;;;;475.00;425.20;;;13.00;99.90;;;13.02;100.00;100176.28;5107140;27;20207;-66
2022/09/13 04:18:47;;;;;;;473.73;423.75;;;13.00;99.90;;;13.05;100.00;100178.91;5075456;27;20218;-66
2022/09/13 04:21:15;;;;;;;473.40;423.33;;;13.00;99.90;;;12.98;100.00;100176.25;5109473;28;20202;-66
2022/09/13 04:23:43;;;;;;;478.67;429.13;;;13.00;99.90;;;13.01;100.00;100181.59;5092697;27;20210;-66
2022/09/13 04:26:11;;;;;;;490.42;438.35;;;13.00;99.90;;;13.10;100.00;100193.03;5096750;28;20208;-66
2022/09/13 04:28:38;;;;;;;478.17;428.48;;;13.00;99.90;;;13.02;100.00;100204.59;5092758;28;20694;-67
2022/09/13 04:31:07;;;;;;;472.17;423.10;;;13.00;99.90;;;13.03;100.00;100214.31;5114505;28;20219;-67
2022/09/13 04:33:35;;;;;;;479.80;429.15;;;13.00;99.90;;;13.13;100.00;100224.00;5064504;27;20204;-65
2022/09/13 04:36:03;;;;;;;482.73;433.00;;;13.10;99.90;;;13.03;100.00;100219.63;5083455;28;20226;-66
2022/09/13 04:38:31;;;;;;;475.60;425.77;;;13.10;99.90;;;13.03;100.00;100236.44;5077304;28;20655;-66
2022/09/13 04:40:59;;;;;;;471.77;421.70;;;13.10;99.90;;;13.00;100.00;100244.41;5092679;28;20203;-65
2022/09/13 04:43:27;;;;;;;478.67;428.08;;;13.10;99.90;;;12.96;100.00;100239.97;5109507;28;20229;-65
2022/09/13 04:46:00;;;;;;;481.80;431.08;;;13.00;99.90;;;12.91;100.00;100240.88;5086472;28;20207;-66
2022/09/13 04:48:28;;;;;;;494.10;442.55;;;13.00;99.90;;;12.97;100.00;100240.84;5074878;28;20207;-67
2022/09/13 04:51:05;;;;;;;469.65;420.67;;;13.00;99.90;;;12.92;100.00;100248.84;5075763;27;20600;-67
2022/09/13 04:53:33;;;;;;;471.50;421.70;;;12.90;99.90;;;13.00;100.00;100251.47;5087265;27;20218;-66
2022/09/13 04:56:03;;;;;;;466.95;418.23;;;13.00;99.90;;;13.03;100.00;100262.97;5077932;27;20216;-65
2022/09/13 04:58:31;;;;;;;483.65;432.65;;;13.00;99.90;;;13.02;100.00;100269.19;5078359;27;20209;-67
2022/09/13 05:01:08;;;;;;;471.02;421.05;;;13.00;99.90;;;13.03;100.00;100262.09;5111924;27;20204;-66
2022/09/13 05:03:36;;;;;;;472.98;422.17;;;13.50;99.90;;;13.13;100.00;100262.06;5091576;27;20241;-65
2022/09/13 05:06:16;;;;;;;469.42;420.38;;;13.00;99.90;;;13.13;100.00;100267.38;5068337;27;20212;-66
2022/09/13 05:08:50;;;;;;;465.65;416.13;;;13.00;99.90;;;13.14;100.00;100268.25;5114039;27;20214;-65
2022/09/13 05:11:19;;;;;;;472.95;422.77;;;13.10;99.90;;;13.12;100.00;100284.19;5113026;27;20195;-66
2022/09/13 05:13:53;;;;;;;471.88;422.17;;;13.10;99.90;;;13.09;100.00;100300.13;5102709;27;20214;-65
2022/09/13 05:16:23;;;;;;;470.77;420.65;;;13.00;99.90;;;13.13;100.00;100299.22;5076243;28;20230;-65
2022/09/13 05:18:52;;;;;;;470.23;420.83;;;13.10;99.90;;;13.21;100.00;100293.91;5076018;27;20200;-64
2022/09/13 05:21:20;;;;;;;458.02;409.80;;;13.10;99.90;;;13.20;100.00;100297.47;5102421;28;20200;-64
2022/09/13 05:23:50;;;;;;;470.58;420.95;;;13.10;99.90;;;13.18;100.00;100285.97;5089905;27;20206;-65
2022/09/13 05:26:18;;;;;;;478.13;428.40;;;13.10;99.90;;;13.20;100.00;100278.00;5089022;28;20208;-65
2022/09/13 05:28:46;;;;;;;483.55;433.30;;;13.10;99.90;;;13.21;100.00;100279.75;5099172;27;20587;-64
2022/09/13 05:31:24;;;;;;;478.38;428.50;;;13.10;99.90;;;13.20;100.00;100292.16;5076654;28;20205;-64
2022/09/13 05:33:59;;;;;;;477.80;427.77;;;13.10;99.90;;;13.18;100.00;100291.28;5083873;27;20211;-65
2022/09/13 05:36:28;;;;;;;472.23;422.67;;;13.10;99.90;;;13.02;100.00;100284.22;5078630;27;20227;-65
2022/09/13 05:38:56;;;;;;;486.38;435.35;;;13.00;99.90;;;12.94;100.00;100284.22;5092855;28;20204;-65
2022/09/13 05:41:44;;;;;;;476.85;426.95;;;13.00;99.90;;;13.00;100.00;100286.88;5076125;27;20223;-65
2022/09/13 05:44:12;;;;;;;475.73;427.35;;;13.00;99.90;;;13.13;100.00;100299.22;5085912;28;20201;-64
2022/09/13 05:46:42;;;;;;;487.63;438.05;;;13.00;99.90;;;13.20;100.00;100315.16;5072749;27;20563;-65
2022/09/13 05:49:12;;;;;;;485.92;436.65;;;13.10;99.90;;;13.28;100.00;100322.22;5070812;27;20234;-65
2022/09/13 05:51:40;;;;;;;481.83;431.83;;;13.20;99.90;;;13.31;100.00;100324.88;5098304;27;20238;-66
2022/09/13 05:54:11;;;;;;;458.13;410.02;;;13.20;99.90;;;13.41;100.00;100313.31;5096828;27;20204;-65
2022/09/13 05:56:39;;;;;;;484.98;436.60;;;13.30;99.90;;;13.48;100.00;100311.50;5096777;27;20215;-65
2022/09/13 05:59:12;;;;;;;483.58;434.33;;;13.30;99.90;;;13.48;100.00;100313.28;5075718;28;20192;-64
2022/09/13 06:01:41;;;;;;;502.17;451.38;;;13.40;99.90;;;13.56;100.00;100330.94;5090302;27;20243;-65
2022/09/13 06:04:11;;;;;;;490.83;441.73;;;13.40;99.90;;;13.60;100.00;100326.50;5068862;27;20196;-65
2022/09/13 06:06:39;;;;;;;488.63;439.85;;;13.50;99.90;;;13.65;100.00;100319.41;5079746;27;20200;-64
2022/09/13 06:09:08;;;;;;;499.05;448.88;;;13.50;99.90;;;13.60;100.00;100311.44;5067862;27;20231;-65
2022/09/13 06:11:36;;;;;;;502.67;452.45;;;13.50;99.90;;;13.64;100.00;100307.88;5080163;27;20713;-66
2022/09/13 06:14:03;;;;;;;500.95;451.80;;;13.50;99.90;;;13.63;100.00;100294.59;5096115;27;20216;-64
2022/09/13 06:16:31;;;;;;;508.05;457.70;;;13.50;99.90;;;13.72;100.00;100290.13;5077067;27;20223;-65
2022/09/13 06:18:59;;;;;;;512.88;461.52;;;13.60;99.90;;;13.76;100.00;100286.53;5095176;27;20200;-65
2022/09/13 06:21:27;;;;;;;507.85;457.42;;;13.60;99.90;;;13.74;100.00;100285.69;5084811;27;20230;-65
2022/09/13 06:23:56;;;;;;;507.38;457.55;;;13.60;99.90;;;13.82;100.00;100276.78;5095319;27;20204;-64
2022/09/13 06:26:27;;;;;;;516.38;466.73;;;13.70;99.90;;;13.87;100.00;100293.56;5094566;27;20204;-65
2022/09/13 06:28:57;;;;;;;513.90;463.77;;;13.70;99.90;;;13.98;100.00;100299.69;5078894;27;20199;-66
2022/09/13 06:31:27;;;;;;;519.78;470.02;;;13.90;99.90;;;14.02;100.00;100309.41;5108346;27;20268;-66
2022/09/13 06:34:03;;;;;;;531.17;480.33;;;13.90;99.90;;;14.11;100.00;100327.97;5108132;27;20216;-67
2022/09/13 06:36:31;;;;;;;518.25;467.98;;;14.00;99.90;;;14.13;100.00;100326.19;5078161;27;20249;-67
2022/09/13 06:39:00;;;;;;;537.17;486.67;;;14.00;99.90;;;14.17;100.00;100317.28;5085443;27;20207;-64
2022/09/13 06:41:28;;;;;;;534.63;483.25;;;14.00;99.90;;;14.13;100.00;100309.34;5083805;27;20212;-65
2022/09/13 06:43:58;;;;;;;533.97;483.52;;;14.00;99.90;;;14.23;100.00;100324.31;5083301;27;20204;-66
2022/09/13 06:46:29;;;;;;;540.55;489.65;;;14.10;99.90;;;14.30;100.00;100321.66;5112460;27;20200;-66
2022/09/13 06:49:03;;;;;;;535.45;484.52;;;14.20;99.90;;;14.37;100.00;100334.00;5078497;27;20211;-65
2022/09/13 06:51:33;;;;;;;544.47;493.98;;;14.20;99.90;;;14.44;100.00;100339.31;5079181;27;20227;-65
2022/09/13 06:54:02;;;;;;;542.00;491.67;;;14.30;99.90;;;14.50;100.00;100337.47;5103600;27;20207;-65
2022/09/13 06:56:36;;;;;;;540.92;491.52;;;14.30;99.90;;;14.64;100.00;100346.22;5112460;27;20212;-64
2022/09/13 06:59:09;;;;;;;551.63;500.48;;;14.40;99.90;;;14.64;100.00;100332.91;5074223;28;20644;-66
2022/09/13 07:01:42;;;;;;;553.80;503.15;;;14.50;99.90;;;14.80;100.00;100328.31;5088651;28;20231;-67
2022/09/13 07:04:14;;;;;;;561.55;510.13;;;14.70;99.90;;;14.83;100.00;100322.97;5078495;28;20193;-66
2022/09/13 07:06:46;;;;;;;573.10;521.85;;;14.80;99.90;;;14.92;100.00;100324.66;5066815;27;20227;-65
2022/09/13 07:09:21;;;;;;;577.05;525.38;;;14.80;99.90;;;14.99;100.00;100310.38;5106562;28;20196;-65
2022/09/13 07:11:51;;;;;;;576.60;524.95;;;14.90;99.90;;;15.02;100.00;100303.22;5077380;27;20228;-66
2022/09/13 07:14:23;;;;;;;578.10;526.55;;;14.90;99.90;;;15.04;100.00;100298.78;5094270;27;20690;-64
2022/09/13 07:16:52;;;;;;;586.33;534.88;;;15.10;99.90;;;15.04;100.00;100304.09;5079958;27;20221;-65
2022/09/13 07:19:25;;;;;;;597.00;544.97;;;15.20;99.90;;;15.16;100.00;100310.19;5075756;27;20195;-65
2022/09/13 07:21:55;;;;;;;597.40;545.00;;;15.10;99.90;;;15.14;100.00;100312.88;5083108;27;20217;-65
2022/09/13 07:24:27;;;;;;;603.42;550.65;;;15.20;99.90;;;15.22;100.00;100326.97;5089975;27;20230;-65
2022/09/13 07:26:54;;;;;;;607.28;554.95;;;15.30;99.90;;;15.24;100.00;100321.63;5067950;27;20199;-66
2022/09/13 07:29:23;;;;;;;598.67;547.50;;;15.20;99.90;;;15.27;100.00;100329.59;5098693;27;20208;-64
2022/09/13 07:31:53;;;;;;;605.13;553.80;;;15.30;99.90;;;15.28;100.00;100326.03;5078680;27;20704;-65
2022/09/13 07:34:23;;;;;;;617.42;565.05;;;15.30;99.90;;;15.26;100.00;100326.03;5087198;27;20215;-66
2022/09/13 07:36:56;;;;;;;620.63;567.58;;;15.30;99.90;;;15.42;100.00;100324.06;5114242;27;20586;-65
2022/09/13 07:39:24;;;;;;;620.58;568.22;;;15.30;99.90;;;15.48;100.00;100328.44;5087032;28;20215;-65
2022/09/13 07:41:52;;;;;;;629.13;576.67;;;15.40;99.90;;;15.60;100.00;100323.91;5067412;27;20216;-64
2022/09/13 07:44:21;;;;;;;620.17;568.80;;;15.50;99.90;;;15.70;100.00;100330.00;5073677;28;20572;-65
2022/09/13 07:46:49;;;;;;;622.85;570.78;;;15.60;99.90;;;15.76;100.00;100319.25;5068222;27;20204;-66
2022/09/13 07:49:18;;;;;;;626.65;574.83;;;15.70;99.90;;;15.73;100.00;100321.06;5090983;27;20235;-65
2022/09/13 07:52:04;;;;;;;638.92;586.63;;;15.70;99.90;;;15.80;100.00;100328.09;5107459;27;20235;-66
2022/09/13 07:54:51;;;;;;;632.95;580.50;;;15.70;99.90;;;15.77;100.00;100310.34;5095411;27;20203;-66
2022/09/13 07:57:37;;;;;;;630.08;578.90;;;15.70;99.90;;;15.80;100.00;100294.31;5101060;27;20211;-67
2022/09/13 08:00:06;;;;;;;644.30;591.45;;;15.70;99.90;;;15.93;100.00;100292.34;5075088;28;20208;-65
2022/09/13 08:02:38;;;;;;;652.17;599.40;;;15.80;99.90;;;16.12;100.00;100298.25;5088642;27;20216;-66
2022/09/13 08:05:07;;;;;;;653.67;600.75;;;15.90;99.90;;;16.12;100.00;100295.59;5083841;28;20231;-65
2022/09/13 08:07:35;;;;;;;651.72;599.92;;;16.00;99.90;;;16.05;100.00;100283.25;5078954;28;20211;-65
2022/09/13 08:10:03;;;;;;;664.45;612.53;;;16.00;99.90;;;16.28;100.00;100292.66;5072692;27;20211;-65
2022/09/13 08:12:31;;;;;;;674.08;620.28;;;16.10;99.90;;;16.44;100.00;100306.63;5098786;27;20231;-65
2022/09/13 08:14:59;;;;;;;681.67;627.58;;;16.30;99.90;;;16.51;100.00;100299.38;5054618;27;20235;-65
2022/09/13 08:17:28;;;;;;;685.55;632.17;;;16.40;99.90;;;16.73;100.00;100311.50;5076681;27;20220;-67
2022/09/13 08:19:56;;;;;;;684.28;631.28;;;16.60;99.90;;;16.75;100.00;100295.44;5096389;27;20211;-65
2022/09/13 08:22:23;;;;;;;688.90;635.63;;;16.70;99.90;;;16.86;100.00;100294.31;5098295;27;20592;-64
2022/09/13 08:24:51;;;;;;;704.25;650.33;;;16.70;99.90;;;17.12;100.00;100295.66;5090784;28;20211;-65
2022/09/13 08:27:19;;;;;;;708.97;655.22;;;16.90;99.90;;;17.46;100.00;100291.38;5098979;27;20204;-65
2022/09/13 08:29:47;;;;;;;713.92;659.83;;;17.10;99.90;;;17.43;100.00;100269.16;5081798;28;20212;-67
2022/09/13 08:32:15;;;;;;;714.55;661.55;;;17.30;99.90;;;17.24;100.00;100241.94;5070540;28;20224;-66
2022/09/13 08:34:42;;;;;;;728.25;673.83;;;17.20;99.90;;;17.53;100.00;100274.28;5099341;27;20221;-66
2022/09/13 08:37:11;;;;;;;734.40;680.63;;;17.30;99.90;;;17.71;100.00;100264.13;5104990;28;20223;-65
2022/09/13 08:39:54;;;;;;;739.03;684.28;;;17.50;99.90;;;17.79;100.00;100264.81;5086063;28;20208;-65
2022/09/13 08:43:05;;;;;;;752.03;697.65;;;17.80;99.90;;;17.79;100.00;100259.47;5072740;28;20219;-65
2022/09/13 08:45:33;;;;;;;745.90;692.55;;;17.30;99.90;;;18.13;100.00;100292.53;5116684;28;20200;-66
2022/09/13 08:48:13;;;;;;;771.95;716.83;;;18.10;99.90;;;18.18;100.00;100287.06;5080092;27;20209;-65
2022/09/13 08:50:43;;;;;;;784.22;727.95;;;18.30;99.90;;;18.00;100.00;100260.75;5084728;27;20206;-66
2022/09/13 08:53:34;;;;;;;788.47;732.58;;;18.30;99.90;;;18.25;100.00;100274.44;5089597;28;20231;-66
2022/09/13 08:56:24;;;;;;;793.15;737.28;;;18.70;99.90;;;18.26;100.00;100246.75;5072172;28;20200;-66
2022/09/13 08:59:56;;;;;;;795.28;740.03;;;18.60;99.90;;;18.55;100.00;100258.47;5073871;28;21022;-65
2022/09/13 09:02:43;;;;;;;800.40;744.60;;;18.90;99.90;;;18.55;100.00;100231.69;5071893;28;20219;-64
2022/09/13 09:05:46;;;;;;;819.60;763.13;;;18.90;99.90;;;18.81;100.00;100239.06;5061026;28;20218;-65
2022/09/13 09:08:42;;;;;;;840.75;780.72;;;18.90;99.90;;;18.91;100.00;100203.97;5067212;28;20555;-65
2022/09/13 09:11:34;;;;;;;825.90;769.30;;;19.30;99.90;;;18.71;100.00;100197.38;5080378;27;20208;-66
2022/09/13 09:14:16;;;;;;;826.03;771.10;;;18.90;99.90;;;19.00;100.00;100231.38;5091171;28;20201;-65
2022/09/13 09:16:50;;;;;;;840.65;783.95;;;19.10;99.90;;;19.06;100.00;100207.06;5066077;27;20210;-67
2022/09/13 09:19:44;;;;;;;853.22;796.13;;;19.30;99.90;;;19.44;100.00;100238.09;5081378;28;20232;-66
2022/09/13 09:22:23;;;;;;;861.55;803.42;;;19.60;99.90;;;20.01;100.00;100253.34;5102068;28;20223;-65
2022/09/13 09:24:56;;;;;;;870.75;813.53;;;20.20;99.90;;;19.85;100.00;100257.47;5085475;28;20219;-67
2022/09/13 09:27:24;;;;;;;892.05;832.40;;;20.30;99.90;;;19.73;100.00;100248.00;5098226;27;20195;-65
2022/09/13 09:29:57;;;;;;;905.28;845.30;;;20.50;99.90;;;19.75;100.00;100238.09;5071261;27;20203;-66
2022/09/13 09:32:24;;;;;;;900.03;841.50;;;20.60;99.90;;;20.00;100.00;100251.59;5075390;27;20234;-66
2022/09/13 09:35:04;;;;;;;912.70;852.92;;;20.60;99.90;;;19.84;100.00;100236.03;5077757;27;20211;-66
2022/09/13 09:37:35;;;;;;;911.63;852.60;;;20.80;99.90;;;20.28;100.00;100272.16;5077258;27;20195;-65
2022/09/13 09:40:10;;;;;;;928.10;866.47;;;21.00;99.90;;;20.66;100.00;100246.72;5072873;27;20706;-67
2022/09/13 09:42:48;;;;;;;938.55;876.20;;;21.40;99.90;;;20.35;100.00;100187.78;5072746;27;20222;-67
2022/09/13 09:45:31;;;;;;;925.67;865.78;;;21.50;99.90;;;20.41;100.00;100174.16;5073805;27;20675;-65
2022/09/13 09:48:06;;;;;;;930.28;870.45;;;21.40;99.90;;;20.34;100.00;100154.69;5090582;27;20218;-65
2022/09/13 09:50:42;;;;;;;942.45;881.03;;;21.20;99.90;;;20.25;100.00;100152.31;5087226;27;20207;-67
2022/09/13 09:53:42;;;;;;;943.03;881.63;;;20.80;99.90;;;20.34;100.00;100129.63;5106196;27;20231;-66
2022/09/13 09:56:32;;;;;;;938.97;878.35;;;21.10;99.90;;;20.31;100.00;100149.41;5107498;27;20215;-65
2022/09/13 09:59:01;;;;;;;946.58;885.35;;;20.80;99.90;;;20.43;100.00;100154.38;5094404;27;20714;-66
2022/09/13 10:01:33;;;;;;;951.05;888.78;;;20.90;99.90;;;20.47;100.00;100147.09;5085631;28;20220;-67
2022/09/13 10:04:10;;;;;;;952.55;890.58;;;21.00;99.90;;;20.73;100.00;100187.31;5109371;27;20202;-65
2022/09/13 10:06:42;;;;;;;971.38;906.78;;;21.10;99.90;;;21.03;100.00;100163.81;5058814;27;20203;-65
2022/09/13 10:09:14;;;;;;;955.53;894.28;;;21.50;99.90;;;20.99;100.00;100146.06;5070134;27;20199;-65
2022/09/13 10:11:55;;;;;;;959.53;897.75;;;21.80;99.90;;;20.67;100.00;100124.88;5095944;27;20717;-65
2022/09/13 10:14:43;;;;;;;965.10;903.55;;;21.60;99.90;;;21.08;100.00;100191.41;5099443;27;20206;-65
2022/09/13 10:17:27;;;;;;;973.53;910.63;;;21.90;99.90;;;20.99;100.00;100205.19;5111050;27;20210;-65
2022/09/13 10:20:26;;;;;;;976.92;914.00;;;21.90;99.90;;;21.29;100.00;100189.75;5109359;27;20220;-65